createdAt,value
2023-09-17T00:01:17.467Z,69.58
2023-09-17T00:03:44.395Z,69.25
2023-09-17T00:06:11.233Z,69.65
2023-09-17T00:08:39.165Z,69.30
2023-09-17T00:13:33.030Z,69.44
2023-09-17T00:16:00.815Z,70.14
2023-09-17T00:18:28.138Z,69.88
2023-09-17T00:20:54.870Z,69.73
2023-09-17T00:23:21.680Z,69.96
2023-09-17T00:25:48.519Z,70.08
2023-09-17T00:28:15.393Z,69.79
2023-09-17T00:30:42.254Z,70.37
2023-09-17T00:33:09.131Z,69.76
2023-09-17T00:35:35.967Z,69.83
2023-09-17T00:38:03.100Z,70.19
2023-09-17T00:40:31.427Z,69.72
2023-09-17T00:42:58.314Z,70.24
2023-09-17T00:45:25.140Z,69.92
2023-09-17T00:47:52.245Z,70.54
2023-09-17T00:50:19.201Z,70.39
2023-09-17T00:52:46.693Z,70.37
2023-09-17T00:55:13.745Z,69.96
2023-09-17T00:57:46.854Z,70.34
2023-09-17T01:00:14.559Z,70.01
2023-09-17T01:02:43.892Z,69.83
2023-09-17T01:05:11.104Z,70.18
2023-09-17T01:07:39.533Z,70.08
2023-09-17T01:10:07.856Z,69.94
2023-09-17T01:12:35.434Z,69.47
2023-09-17T01:15:07.318Z,70.00
2023-09-17T01:17:35.736Z,69.51
2023-09-17T01:20:08.606Z,70.00
2023-09-17T01:22:42.890Z,69.69
2023-09-17T01:25:37.509Z,69.33
2023-09-17T01:28:07.097Z,68.88
2023-09-17T01:30:33.900Z,69.17
2023-09-17T01:33:02.206Z,68.86
2023-09-17T01:35:31.545Z,68.97
2023-09-17T01:38:02.754Z,69.63
2023-09-17T01:40:29.686Z,68.58
2023-09-17T01:42:58.224Z,69.58
2023-09-17T01:45:28.261Z,68.75
2023-09-17T01:47:56.227Z,69.37
2023-09-17T01:50:25.169Z,69.16
2023-09-17T01:52:53.237Z,69.14
2023-09-17T01:55:20.008Z,69.38
2023-09-17T01:57:46.725Z,68.75
2023-09-17T02:00:18.424Z,69.09
2023-09-17T02:02:51.077Z,69.54
2023-09-17T02:05:18.381Z,69.21
2023-09-17T02:07:45.899Z,69.41
2023-09-17T02:10:13.482Z,69.11
2023-09-17T02:12:40.583Z,68.87
2023-09-17T02:15:10.682Z,68.74
2023-09-17T02:17:37.814Z,68.73
2023-09-17T02:20:09.654Z,68.84
2023-09-17T02:22:36.466Z,69.31
2023-09-17T02:25:04.164Z,68.60
2023-09-17T02:27:30.907Z,68.90
2023-09-17T02:29:57.595Z,68.36
2023-09-17T02:32:24.319Z,69.24
2023-09-17T02:34:51.070Z,68.38
2023-09-17T02:37:17.805Z,69.21
2023-09-17T02:39:44.645Z,69.00
2023-09-17T02:42:13.172Z,68.99
2023-09-17T02:44:39.959Z,68.26
2023-09-17T02:47:06.808Z,68.86
2023-09-17T02:49:33.783Z,68.51
2023-09-17T02:52:00.554Z,68.60
2023-09-17T02:54:28.060Z,68.71
2023-09-17T02:56:55.250Z,68.80
2023-09-17T02:59:22.059Z,68.66
2023-09-17T03:01:48.975Z,68.09
2023-09-17T03:04:15.895Z,68.17
2023-09-17T03:06:42.613Z,68.19
2023-09-17T03:09:11.967Z,68.75
2023-09-17T03:11:38.936Z,68.73
2023-09-17T03:14:05.635Z,68.69
2023-09-17T03:16:32.502Z,68.63
2023-09-17T03:18:59.264Z,68.01
2023-09-17T03:21:26.050Z,68.43
2023-09-17T03:23:53.222Z,68.49
2023-09-17T03:26:20.109Z,68.53
2023-09-17T03:28:46.958Z,69.10
2023-09-17T03:31:13.879Z,68.94
2023-09-17T03:33:40.689Z,69.01
2023-09-17T03:36:07.489Z,69.48
2023-09-17T03:38:34.513Z,68.76
2023-09-17T03:41:01.810Z,68.90
2023-09-17T03:43:29.078Z,68.83
2023-09-17T03:45:55.797Z,69.61
2023-09-17T03:48:22.956Z,69.07
2023-09-17T03:50:50.618Z,69.22
2023-09-17T03:53:17.680Z,68.66
2023-09-17T03:55:46.214Z,68.96
2023-09-17T03:58:13.672Z,69.16
2023-09-17T04:00:40.455Z,69.44
2023-09-17T04:03:09.699Z,68.83
2023-09-17T04:05:36.783Z,69.51
2023-09-17T04:08:04.533Z,69.77
2023-09-17T04:10:31.651Z,69.93
2023-09-17T04:12:58.388Z,69.31
2023-09-17T04:15:25.163Z,69.45
2023-09-17T04:17:52.548Z,69.30
2023-09-17T04:20:20.630Z,70.12
2023-09-17T04:22:50.110Z,70.36
2023-09-17T04:25:20.124Z,70.27
2023-09-17T04:27:48.227Z,69.71
2023-09-17T04:30:17.426Z,70.65
2023-09-17T04:32:45.641Z,70.12
2023-09-17T04:35:20.128Z,70.40
2023-09-17T04:37:49.299Z,71.01
2023-09-17T04:40:16.831Z,70.62
2023-09-17T04:42:44.687Z,71.49
2023-09-17T04:45:12.447Z,70.84
2023-09-17T04:47:41.275Z,71.01
2023-09-17T04:50:11.282Z,71.17
2023-09-17T04:52:38.398Z,71.31
2023-09-17T04:55:06.602Z,71.33
2023-09-17T04:57:33.398Z,70.98
2023-09-17T05:00:08.701Z,71.21
2023-09-17T05:02:35.514Z,70.89
2023-09-17T05:05:02.332Z,71.22
2023-09-17T05:07:29.157Z,71.06
2023-09-17T05:09:55.857Z,71.00
2023-09-17T05:12:22.580Z,71.41
2023-09-17T05:14:49.290Z,70.93
2023-09-17T05:17:16.815Z,70.64
2023-09-17T05:19:43.612Z,71.00
2023-09-17T05:22:10.371Z,71.31
2023-09-17T05:24:37.078Z,70.68
2023-09-17T05:27:04.564Z,71.31
2023-09-17T05:29:31.433Z,70.68
2023-09-17T05:31:58.241Z,70.62
2023-09-17T05:34:25.219Z,70.87
2023-09-17T05:36:51.938Z,70.86
2023-09-17T05:39:18.658Z,70.95
2023-09-17T05:41:45.372Z,70.58
2023-09-17T05:44:12.158Z,70.82
2023-09-17T05:46:38.949Z,71.16
2023-09-17T05:49:05.708Z,70.98
2023-09-17T05:51:32.573Z,70.81
2023-09-17T05:53:59.315Z,70.21
2023-09-17T05:56:26.063Z,71.04
2023-09-17T05:58:52.784Z,71.09
2023-09-17T06:01:19.593Z,70.22
2023-09-17T06:03:46.389Z,71.14
2023-09-17T06:06:13.122Z,70.52
2023-09-17T06:08:40.145Z,70.52
2023-09-17T06:11:06.843Z,70.96
2023-09-17T06:13:33.776Z,70.42
2023-09-17T06:16:00.767Z,70.92
2023-09-17T06:18:29.951Z,69.88
2023-09-17T06:20:57.809Z,70.19
2023-09-17T06:23:24.518Z,69.85
2023-09-17T06:25:51.320Z,70.21
2023-09-17T06:28:18.396Z,70.21
2023-09-17T06:30:46.443Z,69.68
2023-09-17T06:33:13.225Z,69.37
2023-09-17T06:35:39.988Z,69.36
2023-09-17T06:38:06.675Z,69.55
2023-09-17T06:40:33.467Z,69.29
2023-09-17T06:43:00.420Z,68.46
2023-09-17T06:45:27.138Z,68.19
2023-09-17T06:47:53.944Z,68.34
2023-09-17T06:50:20.660Z,67.59
2023-09-17T06:52:47.395Z,67.21
2023-09-17T06:55:14.149Z,67.04
2023-09-17T06:57:40.857Z,66.64
2023-09-17T07:00:08.304Z,66.36
2023-09-17T07:02:35.083Z,66.23
2023-09-17T07:05:04.871Z,66.54
2023-09-17T07:07:31.938Z,66.13
2023-09-17T07:09:58.753Z,66.01
2023-09-17T07:12:25.528Z,66.23
2023-09-17T07:14:52.221Z,65.87
2023-09-17T07:17:19.013Z,66.16
2023-09-17T07:19:45.937Z,66.15
2023-09-17T07:22:16.171Z,65.91
2023-09-17T07:24:43.480Z,66.04
2023-09-17T07:27:10.224Z,65.74
2023-09-17T07:29:36.993Z,65.47
2023-09-17T07:32:04.737Z,65.37
2023-09-17T07:34:32.428Z,65.53
2023-09-17T07:37:01.283Z,64.99
2023-09-17T07:39:28.283Z,64.80
2023-09-17T07:41:54.986Z,64.86
2023-09-17T07:44:21.907Z,64.72
2023-09-17T07:46:48.803Z,64.41
2023-09-17T07:49:15.593Z,63.98
2023-09-17T07:51:42.337Z,63.89
2023-09-17T07:54:09.876Z,63.56
2023-09-17T07:56:36.615Z,63.23
2023-09-17T07:59:04.530Z,62.64
2023-09-17T08:01:33.184Z,61.33
2023-09-17T08:04:00.362Z,59.26
2023-09-17T08:06:27.230Z,57.21
2023-09-17T08:08:53.993Z,55.32
2023-09-17T08:11:20.968Z,55.36
2023-09-17T08:13:49.317Z,54.88
2023-09-17T08:16:16.471Z,55.81
2023-09-17T08:18:43.489Z,56.37
2023-09-17T08:21:10.377Z,56.93
2023-09-17T08:23:37.127Z,55.37
2023-09-17T08:26:05.953Z,55.36
2023-09-17T08:28:32.720Z,54.46
2023-09-17T08:30:59.551Z,54.67
2023-09-17T08:33:26.515Z,54.38
2023-09-17T08:35:53.443Z,54.16
2023-09-17T08:38:20.393Z,54.16
2023-09-17T08:40:48.419Z,53.54
2023-09-17T08:43:16.762Z,53.49
2023-09-17T08:45:43.752Z,53.47
2023-09-17T08:48:10.645Z,53.21
2023-09-17T08:50:38.412Z,53.69
2023-09-17T08:53:08.682Z,53.41
2023-09-17T08:55:36.204Z,53.01
2023-09-17T08:58:25.610Z,53.69
2023-09-17T09:00:57.397Z,52.97
2023-09-17T09:03:26.780Z,52.83
2023-09-17T09:05:58.204Z,52.54
2023-09-17T09:08:26.247Z,52.04
2023-09-17T09:10:53.324Z,52.05
2023-09-17T09:13:22.267Z,52.27
2023-09-17T09:15:49.505Z,51.45
2023-09-17T09:18:16.471Z,52.35
2023-09-17T09:20:43.789Z,52.85
2023-09-17T09:23:10.774Z,52.40
2023-09-17T09:25:37.669Z,53.00
2023-09-17T09:28:05.088Z,53.12
2023-09-17T09:30:31.926Z,53.71
2023-09-17T09:32:58.854Z,54.85
2023-09-17T09:35:26.524Z,55.00
2023-09-17T09:37:54.833Z,54.43
2023-09-17T09:40:22.954Z,53.65
2023-09-17T09:42:50.452Z,53.59
2023-09-17T09:45:17.927Z,53.94
2023-09-17T09:47:52.193Z,53.86
2023-09-17T09:50:26.719Z,53.55
2023-09-17T09:52:54.754Z,53.49
2023-09-17T09:55:26.112Z,53.16
2023-09-17T09:57:53.593Z,53.55
2023-09-17T10:00:28.198Z,52.94
2023-09-17T10:02:56.471Z,52.96
2023-09-17T10:05:38.441Z,52.84
2023-09-17T10:08:06.055Z,53.04
2023-09-17T10:10:33.302Z,52.90
2023-09-17T10:13:02.231Z,52.87
2023-09-17T10:15:29.103Z,52.75
2023-09-17T10:17:58.121Z,53.39
2023-09-17T10:20:27.632Z,53.68
2023-09-17T10:22:56.198Z,54.16
2023-09-17T10:25:24.664Z,54.24
2023-09-17T10:27:55.173Z,55.16
2023-09-17T10:30:22.522Z,55.22
2023-09-17T10:32:51.852Z,54.51
2023-09-17T10:35:18.842Z,54.79
2023-09-17T10:37:47.615Z,55.70
2023-09-17T10:40:14.523Z,55.92
2023-09-17T10:42:41.252Z,56.31
2023-09-17T10:45:09.399Z,56.87
2023-09-17T10:47:39.770Z,57.46
2023-09-17T10:50:07.148Z,57.79
2023-09-17T10:52:37.306Z,57.79
2023-09-17T10:55:09.211Z,58.56
2023-09-17T10:57:42.019Z,58.18
2023-09-17T11:00:14.845Z,57.74
2023-09-17T11:02:51.912Z,57.89
2023-09-17T11:05:24.110Z,57.86
2023-09-17T11:07:56.167Z,58.28
2023-09-17T11:10:31.636Z,58.01
2023-09-17T11:12:59.581Z,57.93
2023-09-17T11:15:26.467Z,58.42
2023-09-17T11:18:01.183Z,58.01
2023-09-17T11:20:28.140Z,57.91
2023-09-17T11:22:54.857Z,57.85
2023-09-17T11:25:38.717Z,57.89
2023-09-17T11:28:13.953Z,57.60
2023-09-17T11:30:59.930Z,57.65
2023-09-17T11:33:30.689Z,57.12
2023-09-17T11:35:58.162Z,57.25
2023-09-17T11:38:26.262Z,56.74
2023-09-17T11:41:12.685Z,57.05
2023-09-17T11:43:44.755Z,57.04
2023-09-17T11:46:13.025Z,56.55
2023-09-17T11:48:43.234Z,55.54
2023-09-17T11:51:26.947Z,56.23
2023-09-17T11:54:02.383Z,55.06
2023-09-17T11:56:33.951Z,55.42
2023-09-17T11:59:04.932Z,55.31
2023-09-17T12:01:42.888Z,55.37
2023-09-17T12:04:11.464Z,54.61
2023-09-17T12:06:41.092Z,54.65
2023-09-17T12:09:22.643Z,54.79
2023-09-17T12:11:49.809Z,54.55
2023-09-17T12:14:17.938Z,54.93
2023-09-17T12:16:47.479Z,54.73
2023-09-17T12:19:18.289Z,54.53
2023-09-17T12:21:50.326Z,54.34
2023-09-17T12:24:21.638Z,54.99
2023-09-17T12:27:10.068Z,55.13
2023-09-17T12:29:38.079Z,54.71
2023-09-17T12:32:06.023Z,54.88
2023-09-17T12:34:37.008Z,55.84
2023-09-17T12:37:06.827Z,56.08
2023-09-17T12:39:33.819Z,55.71
2023-09-17T12:42:00.664Z,56.14
2023-09-17T12:44:28.207Z,56.00
2023-09-17T12:46:55.202Z,56.67
2023-09-17T12:49:23.229Z,56.34
2023-09-17T12:51:52.734Z,56.36
2023-09-17T12:54:22.565Z,57.33
2023-09-17T12:56:50.395Z,57.45
2023-09-17T12:59:17.568Z,57.60
2023-09-17T13:01:59.035Z,57.29
2023-09-17T13:04:35.845Z,57.62
2023-09-17T13:07:05.382Z,57.45
2023-09-17T13:09:35.335Z,56.57
2023-09-17T13:12:02.469Z,57.12
2023-09-17T13:14:31.528Z,56.39
2023-09-17T13:16:58.512Z,56.89
2023-09-17T13:19:25.918Z,56.16
2023-09-17T13:21:52.711Z,57.03
2023-09-17T13:24:19.910Z,56.97
2023-09-17T13:26:46.611Z,56.58
2023-09-17T13:29:13.367Z,57.26
2023-09-17T13:31:42.050Z,57.66
2023-09-17T13:34:11.704Z,57.77
2023-09-17T13:36:38.868Z,57.46
2023-09-17T13:39:05.784Z,57.36
2023-09-17T13:41:32.654Z,57.67
2023-09-17T13:43:59.531Z,57.65
2023-09-17T13:46:26.332Z,57.77
2023-09-17T13:48:53.318Z,57.76
2023-09-17T13:51:20.285Z,57.92
2023-09-17T13:53:47.021Z,57.77
2023-09-17T13:56:13.875Z,57.77
2023-09-17T13:58:40.797Z,57.68
2023-09-17T14:01:07.673Z,57.93
2023-09-17T14:03:34.484Z,57.48
2023-09-17T14:06:01.311Z,58.15
2023-09-17T14:08:30.898Z,58.24
2023-09-17T14:10:57.686Z,58.24
2023-09-17T14:13:24.478Z,58.87
2023-09-17T14:15:51.329Z,58.83
2023-09-17T14:18:18.219Z,58.31
2023-09-17T14:20:45.080Z,58.53
2023-09-17T14:23:11.867Z,58.68
2023-09-17T14:25:38.663Z,58.72
2023-09-17T14:28:06.058Z,59.65
2023-09-17T14:30:35.181Z,59.31
2023-09-17T14:33:02.179Z,59.48
2023-09-17T14:35:29.312Z,59.36
2023-09-17T14:37:56.221Z,59.23
2023-09-17T14:40:23.279Z,59.08
2023-09-17T14:42:50.038Z,59.48
2023-09-17T14:45:16.848Z,58.97
2023-09-17T14:47:44.613Z,58.88
2023-09-17T14:50:12.879Z,59.36
2023-09-17T14:52:42.627Z,58.77
2023-09-17T14:55:09.732Z,59.36
2023-09-17T14:57:37.979Z,58.82
2023-09-17T15:00:06.043Z,58.94
2023-09-17T15:02:33.436Z,59.20
2023-09-17T15:05:01.663Z,59.08
2023-09-17T15:07:28.810Z,59.10
2023-09-17T15:09:55.523Z,59.30
2023-09-17T15:12:22.232Z,59.23
2023-09-17T15:14:48.983Z,59.32
2023-09-17T15:17:15.793Z,59.11
2023-09-17T15:19:42.647Z,58.72
2023-09-17T15:22:09.450Z,58.94
2023-09-17T15:24:36.131Z,58.12
2023-09-17T15:27:02.890Z,58.54
2023-09-17T15:29:30.137Z,57.93
2023-09-17T15:31:57.234Z,57.42
2023-09-17T15:34:25.548Z,57.13
2023-09-17T15:36:53.168Z,57.58
2023-09-17T15:39:20.381Z,57.60
2023-09-17T15:41:47.209Z,57.69
2023-09-17T15:44:16.180Z,57.36
2023-09-17T15:46:43.823Z,57.79
2023-09-17T15:49:10.911Z,58.15
2023-09-17T15:51:37.863Z,58.24
2023-09-17T15:54:05.228Z,58.44
2023-09-17T15:56:32.077Z,58.15
2023-09-17T15:58:58.951Z,58.31
2023-09-17T16:01:25.866Z,57.67
2023-09-17T16:03:52.925Z,58.39
2023-09-17T16:06:24.612Z,57.66
2023-09-17T16:08:53.344Z,57.45
2023-09-17T16:11:20.368Z,57.96
2023-09-17T16:13:47.173Z,57.35
2023-09-17T16:16:14.106Z,57.35
2023-09-17T16:18:40.833Z,57.24
2023-09-17T16:21:07.675Z,57.61
2023-09-17T16:23:34.508Z,57.85
2023-09-17T16:26:01.331Z,57.69
2023-09-17T16:28:29.675Z,58.04
2023-09-17T16:30:56.456Z,57.90
2023-09-17T16:33:23.242Z,57.53
2023-09-17T16:35:50.013Z,58.30
2023-09-17T16:38:16.834Z,57.82
2023-09-17T16:40:45.989Z,58.18
2023-09-17T16:43:15.782Z,58.36
2023-09-17T16:45:44.103Z,58.53
2023-09-17T16:48:11.872Z,58.56
2023-09-17T16:50:38.632Z,58.95
2023-09-17T16:53:05.834Z,58.76
2023-09-17T16:55:32.754Z,58.87
2023-09-17T16:57:59.486Z,59.18
2023-09-17T17:00:26.306Z,59.70
2023-09-17T17:02:53.757Z,59.67
2023-09-17T17:05:20.750Z,60.10
2023-09-17T17:07:47.657Z,59.87
2023-09-17T17:10:14.798Z,59.96
2023-09-17T17:12:41.869Z,60.28
2023-09-17T17:15:09.501Z,60.35
2023-09-17T17:17:36.419Z,60.48
2023-09-17T17:20:05.090Z,60.81
2023-09-17T17:22:43.176Z,61.27
2023-09-17T17:25:10.649Z,61.18
2023-09-17T17:27:37.408Z,61.26
2023-09-17T17:30:07.703Z,61.28
2023-09-17T17:32:34.519Z,61.47
2023-09-17T17:35:01.489Z,61.72
2023-09-17T17:37:28.263Z,61.87
2023-09-17T17:39:59.449Z,61.95
2023-09-17T17:42:27.622Z,62.41
2023-09-17T17:44:55.737Z,62.58
2023-09-17T17:47:22.869Z,62.63
2023-09-17T17:49:52.000Z,63.12
2023-09-17T17:52:22.203Z,63.58
2023-09-17T17:54:49.787Z,63.60
2023-09-17T17:57:18.720Z,63.70
2023-09-17T17:59:46.426Z,63.69
2023-09-17T18:02:14.484Z,63.69
2023-09-17T18:04:41.447Z,63.98
2023-09-17T18:07:08.354Z,64.29
2023-09-17T18:09:35.082Z,64.11
2023-09-17T18:12:03.823Z,64.74
2023-09-17T18:14:31.395Z,64.82
2023-09-17T18:16:58.275Z,65.65
2023-09-17T18:19:25.059Z,65.73
2023-09-17T18:21:51.825Z,66.20
2023-09-17T18:24:18.584Z,66.19
2023-09-17T18:26:45.341Z,66.51
2023-09-17T18:29:12.368Z,66.19
2023-09-17T18:31:39.169Z,66.83
2023-09-17T18:34:05.864Z,66.37
2023-09-17T18:36:33.898Z,66.51
2023-09-17T18:39:01.225Z,66.27
2023-09-17T18:41:27.971Z,65.68
2023-09-17T18:43:55.036Z,65.37
2023-09-17T18:46:22.126Z,65.68
2023-09-17T18:48:48.805Z,65.54
2023-09-17T18:51:15.957Z,65.49
2023-09-17T18:53:42.844Z,65.30
2023-09-17T18:56:09.704Z,66.08
2023-09-17T18:58:36.460Z,67.24
2023-09-17T19:01:04.319Z,67.20
2023-09-17T19:03:31.093Z,67.83
2023-09-17T19:06:00.070Z,67.59
2023-09-17T19:08:26.931Z,67.75
2023-09-17T19:10:54.115Z,67.61
2023-09-17T19:13:20.932Z,67.12
2023-09-17T19:15:48.222Z,67.47
2023-09-17T19:18:15.842Z,67.72
2023-09-17T19:20:44.076Z,67.04
2023-09-17T19:23:11.008Z,67.48
2023-09-17T19:25:37.813Z,66.98
2023-09-17T19:28:07.575Z,66.47
2023-09-17T19:30:34.435Z,66.97
2023-09-17T19:33:01.197Z,66.71
2023-09-17T19:35:28.006Z,66.27
2023-09-17T19:37:54.732Z,65.47
2023-09-17T19:40:21.651Z,64.96
2023-09-17T19:42:48.327Z,64.99
2023-09-17T19:45:15.086Z,64.50
2023-09-17T19:47:43.685Z,64.40
2023-09-17T19:50:10.902Z,63.91
2023-09-17T19:52:37.645Z,63.55
2023-09-17T19:55:05.281Z,63.35
2023-09-17T19:57:32.049Z,63.36
2023-09-17T20:00:00.507Z,63.04
2023-09-17T20:02:27.363Z,63.61
2023-09-17T20:04:54.230Z,62.92
2023-09-17T20:07:20.982Z,62.24
2023-09-17T20:09:47.778Z,62.90
2023-09-17T20:12:14.734Z,63.05
2023-09-17T20:14:41.461Z,62.23
2023-09-17T20:17:08.179Z,62.17
2023-09-17T20:19:37.653Z,61.84
2023-09-17T20:22:04.700Z,62.47
2023-09-17T20:24:32.337Z,62.99
2023-09-17T20:26:59.172Z,62.79
2023-09-17T20:29:25.948Z,62.00
2023-09-17T20:31:55.884Z,62.34
2023-09-17T20:34:23.885Z,61.67
2023-09-17T20:36:51.152Z,62.26
2023-09-17T20:39:18.131Z,62.91
2023-09-17T20:41:46.049Z,63.85
2023-09-17T20:44:13.879Z,64.55
2023-09-17T20:46:41.626Z,64.43
2023-09-17T20:49:10.275Z,64.86
2023-09-17T20:51:37.048Z,66.30
2023-09-17T20:54:03.934Z,67.20
2023-09-17T20:56:30.973Z,67.05
2023-09-17T20:58:59.011Z,67.87
2023-09-17T21:01:25.810Z,68.29
2023-09-17T21:03:54.137Z,68.62
2023-09-17T21:06:21.392Z,69.55
2023-09-17T21:08:48.281Z,69.93
2023-09-17T21:11:17.127Z,69.77
2023-09-17T21:13:43.967Z,70.06
2023-09-17T21:16:10.922Z,69.19
2023-09-17T21:18:37.823Z,69.75
2023-09-17T21:21:04.793Z,69.02
2023-09-17T21:23:31.774Z,69.11
2023-09-17T21:25:58.646Z,69.69
2023-09-17T21:28:25.456Z,69.71
2023-09-17T21:30:52.338Z,69.50
2023-09-17T21:33:19.208Z,69.41
2023-09-17T21:35:46.053Z,69.36
2023-09-17T21:38:12.841Z,69.30
2023-09-17T21:40:39.801Z,69.12
2023-09-17T21:43:06.532Z,68.67
2023-09-17T21:45:33.295Z,68.61
2023-09-17T21:48:01.641Z,68.39
2023-09-17T21:50:28.403Z,67.71
2023-09-17T21:52:55.231Z,68.30
2023-09-17T21:55:21.980Z,67.73
2023-09-17T21:57:49.146Z,68.50
2023-09-17T22:00:24.852Z,67.71
2023-09-17T22:02:52.725Z,68.61
2023-09-17T22:05:23.268Z,68.38
2023-09-17T22:07:50.307Z,68.96
2023-09-17T22:10:18.014Z,68.72
2023-09-17T22:12:45.079Z,68.97
2023-09-17T22:15:11.852Z,69.14
2023-09-17T22:17:38.683Z,68.95
2023-09-17T22:20:16.172Z,68.45
2023-09-17T22:22:43.794Z,68.22
2023-09-17T22:25:11.559Z,68.28
2023-09-17T22:27:38.758Z,68.21
2023-09-17T22:30:07.979Z,69.23
2023-09-17T22:32:35.748Z,69.46
2023-09-17T22:35:02.992Z,69.54
2023-09-17T22:37:30.078Z,69.48
2023-09-17T22:39:57.010Z,69.92
2023-09-17T22:42:23.771Z,70.51
2023-09-17T22:44:50.577Z,70.49
2023-09-17T22:47:17.441Z,70.76
2023-09-17T22:49:44.856Z,70.83
2023-09-17T22:52:11.639Z,71.22
2023-09-17T22:54:39.258Z,71.04
2023-09-17T22:57:06.190Z,71.52
2023-09-17T22:59:33.114Z,71.82
2023-09-17T23:02:00.009Z,72.49
2023-09-17T23:04:26.798Z,71.57
2023-09-17T23:06:55.528Z,72.09
2023-09-17T23:09:22.301Z,72.09
2023-09-17T23:11:49.069Z,72.18
2023-09-17T23:14:15.814Z,72.40
2023-09-17T23:16:42.837Z,72.80
2023-09-17T23:19:09.692Z,72.34
2023-09-17T23:21:37.429Z,72.42
2023-09-17T23:24:05.392Z,72.18
2023-09-17T23:26:33.024Z,72.66
2023-09-17T23:29:01.129Z,72.32
2023-09-17T23:31:28.607Z,72.71
2023-09-17T23:33:55.707Z,72.53
2023-09-17T23:36:24.885Z,72.94
2023-09-17T23:38:51.821Z,72.64
2023-09-17T23:41:18.783Z,72.67
2023-09-17T23:43:45.729Z,72.60
2023-09-17T23:46:12.593Z,72.75
2023-09-17T23:48:39.353Z,73.02
2023-09-17T23:51:06.123Z,73.21
2023-09-17T23:53:33.224Z,73.20
2023-09-17T23:56:00.782Z,73.27
2023-09-17T23:58:27.555Z,72.78
